LIRN/NAP METAR and TAF weather

Enter ICAO airport designator
Station Type Date Time Source
LIRN METAR 2019/02/21 00:20 UTC NOAA

LIRN 210020Z 01001KT 8000 NSC 05/03 Q1026 NOSIG


Station Type Date Time Source
LIRN Decoded METAR 2019/02/21 00:20 UTC NOAA

Napoli / Capodichino, Italy (LIRN) 40-51N 014-18E 72M
Feb 20, 2019 - 07:20 PM EST / 2019.02.21 0020 UTC
Wind: from the N (010 degrees) at 1 MPH (1 KT):0
Visibility: 4 mile(s):0
Temperature: 41 F (5 C)
Dew Point: 37 F (3 C)
Relative Humidity: 86%
Pressure (altimeter): 30.30 in. Hg (1026 hPa)
ob: LIRN 210020Z 01001KT 8000 NSC 05/03 Q1026 NOSIG
cycle: 0

Station Type Date Time Source
LIRN TAF 2019/02/20 18:21 UTC NOAA

TAF LIRN 201700Z 2018/2118 VRB05KT 9999 SCT030
TEMPO 2100/2106 4000 BR


Example: see airport list